Station Historical Data
Daily Summary for May 13, 2012 Units:  Both    English   Metric
« Previous Day
Next Day »
Daily Weekly Monthly Yearly Custom
  High: Low: Average:
Temperature: 69.8 °F /  21 °C 61.1 °F /  16.2 °C 65 °F /  18.3 °C
Dew Point: 66.8 °F /  19.3 °C 59.4 °F /  15.2 °C 62.9 °F /  17.2 °C
Humidity: 94% 89% 93%
Wind Speed: 15.0mph /  24.1km/h - 5.3mph /  8.5km/h
Wind Gust: 15.0mph /  24.1km/h - -
Wind- - South
Pressure: 30.06 in /  1017.8 hPa 29.91 in /  1012.8 hPa -
Precipitation: 0.99 in /  25.15 mm    
Historical Graphs
 
 
Tabular Data for May 13, 2012
Time Temperature Dew Point Pressure Wind Wind Speed Wind Gust Humidity Rainfall Rate (Hourly) Conditions
00:00 63.8 °F /  17.7 °C 61.7 °F /  16.5 °C 30.06in /  1017.8hPa NE 2.0mph /  3.2km/h 4.0mph /  6.4km/h 93% 0.00in /  0mm
00:05 63.7 °F /  17.6 °C 61.6 °F /  16.4 °C 30.06in /  1017.8hPa East 2.0mph /  3.2km/h 4.0mph /  6.4km/h 93% 0.00in /  0mm
00:10 63.8 °F /  17.7 °C 61.7 °F /  16.5 °C 30.06in /  1017.8hPa ENE 2.0mph /  3.2km/h 2.0mph /  3.2km/h 93% 0.00in /  0mm
00:15 63.7 °F /  17.6 °C 61.6 °F /  16.4 °C 30.06in /  1017.8hPa ESE 2.0mph /  3.2km/h 2.0mph /  3.2km/h 93% 0.00in /  0mm
00:20 63.7 °F /  17.6 °C 61.6 °F /  16.4 °C 30.06in /  1017.8hPa ESE 2.0mph /  3.2km/h 7.0mph /  11.3km/h 93% 0.00in /  0mm
00:25 63.7 °F /  17.6 °C 61.6 °F /  16.4 °C 30.06in /  1017.8hPa East 1.0mph /  1.6km/h 3.0mph /  4.8km/h 93% 0.00in /  0mm
00:30 63.7 °F /  17.6 °C 61.6 °F /  16.4 °C 30.06in /  1017.8hPa East 2.0mph /  3.2km/h 3.0mph /  4.8km/h 93% 0.26in /  6.6mm
00:35 63.7 °F /  17.6 °C 61.6 °F /  16.4 °C 30.05in /  1017.5hPa ESE 3.0mph /  4.8km/h 3.0mph /  4.8km/h 93% 0.09in /  2.29mm
00:40 63.7 °F /  17.6 °C 62.0 °F /  16.7 °C 30.05in /  1017.5hPa ESE 2.0mph /  3.2km/h 2.0mph /  3.2km/h 94% 0.09in /  2.29mm
00:45 63.6 °F /  17.6 °C 61.8 °F /  16.6 °C 30.05in /  1017.5hPa ESE 1.0mph /  1.6km/h 2.0mph /  3.2km/h 94% 0.06in /  1.52mm
00:50 63.6 °F /  17.6 °C 61.8 °F /  16.6 °C 30.05in /  1017.5hPa East 1.0mph /  1.6km/h 2.0mph /  3.2km/h 94% 0.04in /  1.02mm
00:55 63.6 °F /  17.6 °C 61.8 °F /  16.6 °C 30.05in /  1017.5hPa East 2.0mph /  3.2km/h 4.0mph /  6.4km/h 94% 0.51in /  12.95mm
01:00 63.6 °F /  17.6 °C 61.8 °F /  16.6 °C 30.04in /  1017.2hPa ENE 3.0mph /  4.8km/h 4.0mph /  6.4km/h 94% 0.22in /  5.59mm
01:06 63.5 °F /  17.5 °C 61.8 °F /  16.6 °C 30.04in /  1017.2hPa NNE 2.0mph /  3.2km/h 4.0mph /  6.4km/h 94% 0.26in /  6.6mm
01:11 63.5 °F /  17.5 °C 61.8 °F /  16.6 °C 30.04in /  1017.2hPa ENE 2.0mph /  3.2km/h 3.0mph /  4.8km/h 94% 0.19in /  4.83mm
01:16 63.5 °F /  17.5 °C 61.8 °F /  16.6 °C 30.04in /  1017.2hPa ENE 3.0mph /  4.8km/h 3.0mph /  4.8km/h 94% 0.31in /  7.87mm
01:21 63.5 °F /  17.5 °C 61.8 °F /  16.6 °C 30.04in /  1017.2hPa East 1.0mph /  1.6km/h 4.0mph /  6.4km/h 94% 0.30in /  7.62mm
01:26 63.5 °F /  17.5 °C 61.8 °F /  16.6 °C 30.04in /  1017.2hPa ENE 4.0mph /  6.4km/h 6.0mph /  9.7km/h 94% 0.24in /  6.1mm
01:31 63.6 °F /  17.6 °C 61.8 °F /  16.6 °C 30.04in /  1017.2hPa East 5.0mph /  8km/h 5.0mph /  8km/h 94% 0.11in /  2.79mm
01:36 63.6 °F /  17.6 °C 61.8 °F /  16.6 °C 30.03in /  1016.8hPa East 4.0mph /  6.4km/h 6.0mph /  9.7km/h 94% 0.16in /  4.06mm
01:41 63.6 °F /  17.6 °C 61.8 °F /  16.6 °C 30.04in /  1017.2hPa SE 5.0mph /  8km/h 7.0mph /  11.3km/h 94% 0.23in /  5.84mm
01:46 63.6 °F /  17.6 °C 61.8 °F /  16.6 °C 30.03in /  1016.8hPa East 8.0mph /  12.9km/h 9.0mph /  14.5km/h 94% 0.31in /  7.87mm
01:51 63.6 °F /  17.6 °C 61.8 °F /  16.6 °C 30.03in /  1016.8hPa SE 5.0mph /  8km/h 14.0mph /  22.5km/h 94% 0.08in /  2.03mm
01:56 63.7 °F /  17.6 °C 62.0 °F /  16.7 °C 30.03in /  1016.8hPa ESE 11.0mph /  17.7km/h 14.0mph /  22.5km/h 94% 0.07in /  1.78mm
02:01 63.7 °F /  17.6 °C 62.0 °F /  16.7 °C 30.02in /  1016.5hPa SE 8.0mph /  12.9km/h 12.0mph /  19.3km/h 94% 0.09in /  2.29mm
02:02 63.7 °F /  17.6 °C 62.0 °F /  16.7 °C 30.02in /  1016.5hPa East 7.0mph /  11.3km/h 10.0mph /  16.1km/h 94% 0.09in /  2.29mm
02:07 63.7 °F /  17.6 °C 61.6 °F /  16.4 °C 30.02in /  1016.5hPa SE 10.0mph /  16.1km/h 12.0mph /  19.3km/h 93% 0.11in /  2.79mm
02:12 63.8 °F /  17.7 °C 61.7 °F /  16.5 °C 30.02in /  1016.5hPa SSE 4.0mph /  6.4km/h 11.0mph /  17.7km/h 93% 0.06in /  1.52mm
02:17 63.8 °F /  17.7 °C 61.7 °F /  16.5 °C 30.02in /  1016.5hPa ESE 6.0mph /  9.7km/h 12.0mph /  19.3km/h 93% 0.04in /  1.02mm
02:22 63.8 °F /  17.7 °C 61.7 °F /  16.5 °C 30.02in /  1016.5hPa ESE 6.0mph /  9.7km/h 14.0mph /  22.5km/h 93% 0.00in /  0mm
02:27 63.8 °F /  17.7 °C 61.7 °F /  16.5 °C 30.01in /  1016.1hPa ESE 10.0mph /  16.1km/h 12.0mph /  19.3km/h 93% 0.00in /  0mm
02:32 63.7 °F /  17.6 °C 61.6 °F /  16.4 °C 30.01in /  1016.1hPa ESE 7.0mph /  11.3km/h 9.0mph /  14.5km/h 93% 0.00in /  0mm
02:37 63.7 °F /  17.6 °C 61.6 °F /  16.4 °C 30.01in /  1016.1hPa ESE 4.0mph /  6.4km/h 14.0mph /  22.5km/h 93% 0.00in /  0mm
02:42 63.7 °F /  17.6 °C 61.6 °F /  16.4 °C 30.01in /  1016.1hPa ESE 6.0mph /  9.7km/h 9.0mph /  14.5km/h 93% 0.00in /  0mm
02:47 63.7 °F /  17.6 °C 61.6 °F /  16.4 °C 30.01in /  1016.1hPa ESE 9.0mph /  14.5km/h 9.0mph /  14.5km/h 93% 0.00in /  0mm
02:52 63.7 °F /  17.6 °C 61.6 °F /  16.4 °C 30.01in /  1016.1hPa SE 7.0mph /  11.3km/h 11.0mph /  17.7km/h 93% 0.04in /  1.02mm
02:53 63.7 °F /  17.6 °C 61.6 °F /  16.4 °C 30.00in /  1015.8hPa SE 7.0mph /  11.3km/h 11.0mph /  17.7km/h 93% 0.04in /  1.02mm
02:58 63.8 °F /  17.7 °C 61.7 °F /  16.5 °C 30.00in /  1015.8hPa ESE 7.0mph /  11.3km/h 9.0mph /  14.5km/h 93% 0.04in /  1.02mm
03:03 63.8 °F /  17.7 °C 61.7 °F /  16.5 °C 30.00in /  1015.8hPa ESE 4.0mph /  6.4km/h 9.0mph /  14.5km/h 93% 0.04in /  1.02mm
03:08 63.8 °F /  17.7 °C 61.7 °F /  16.5 °C 30.00in /  1015.8hPa SE 9.0mph /  14.5km/h 9.0mph /  14.5km/h 93% 0.04in /  1.02mm
03:13 63.7 °F /  17.6 °C 61.6 °F /  16.4 °C 30.00in /  1015.8hPa ESE 6.0mph /  9.7km/h 7.0mph /  11.3km/h 93% 0.16in /  4.06mm
03:18 63.7 °F /  17.6 °C 61.6 °F /  16.4 °C 29.99in /  1015.5hPa SE 7.0mph /  11.3km/h 9.0mph /  14.5km/h 93% 0.07in /  1.78mm
03:23 63.8 °F /  17.7 °C 61.7 °F /  16.5 °C 29.99in /  1015.5hPa ESE 8.0mph /  12.9km/h 10.0mph /  16.1km/h 93% 0.05in /  1.27mm
03:28 63.8 °F /  17.7 °C 61.7 °F /  16.5 °C 29.99in /  1015.5hPa ESE 6.0mph /  9.7km/h 9.0mph /  14.5km/h 93% 0.00in /  0mm
03:33 63.8 °F /  17.7 °C 61.7 °F /  16.5 °C 29.99in /  1015.5hPa SE 6.0mph /  9.7km/h 10.0mph /  16.1km/h 93% 0.00in /  0mm
03:38 63.9 °F /  17.7 °C 61.8 °F /  16.6 °C 29.99in /  1015.5hPa SE 9.0mph /  14.5km/h 13.0mph /  20.9km/h 93% 0.00in /  0mm
03:43 64.0 °F /  17.8 °C 61.9 °F /  16.6 °C 29.98in /  1015.1hPa ESE 9.0mph /  14.5km/h 12.0mph /  19.3km/h 93% 0.00in /  0mm
03:48 64.0 °F /  17.8 °C 61.9 °F /  16.6 °C 29.98in /  1015.1hPa SE 7.0mph /  11.3km/h 11.0mph /  17.7km/h 93% 0.00in /  0mm
03:53 64.1 °F /  17.8 °C 62.0 °F /  16.7 °C 29.99in /  1015.5hPa SE 15.0mph /  24.1km/h 15.0mph /  24.1km/h 93% 0.00in /  0mm
03:58 64.1 °F /  17.8 °C 62.0 °F /  16.7 °C 29.99in /  1015.5hPa SE 6.0mph /  9.7km/h 12.0mph /  19.3km/h 93% 0.00in /  0mm
04:03 64.1 °F /  17.8 °C 62.0 °F /  16.7 °C 29.98in /  1015.1hPa ESE 7.0mph /  11.3km/h 10.0mph /  16.1km/h 93% 0.00in /  0mm
04:08 64.1 °F /  17.8 °C 62.0 °F /  16.7 °C 29.98in /  1015.1hPa ESE 11.0mph /  17.7km/h 11.0mph /  17.7km/h 93% 0.00in /  0mm
04:13 64.1 °F /  17.8 °C 62.0 °F /  16.7 °C 29.98in /  1015.1hPa ESE 6.0mph /  9.7km/h 10.0mph /  16.1km/h 93% 0.00in /  0mm
04:18 64.1 °F /  17.8 °C 62.0 °F /  16.7 °C 29.98in /  1015.1hPa ESE 10.0mph /  16.1km/h 10.0mph /  16.1km/h 93% 0.00in /  0mm
04:23 64.1 °F /  17.8 °C 62.0 °F /  16.7 °C 29.98in /  1015.1hPa ESE 11.0mph /  17.7km/h 12.0mph /  19.3km/h 93% 0.00in /  0mm
04:28 64.1 °F /  17.8 °C 62.0 °F /  16.7 °C 29.98in /  1015.1hPa SE 7.0mph /  11.3km/h 11.0mph /  17.7km/h 93% 0.00in /  0mm
04:33 64.2 °F /  17.9 °C 62.1 °F /  16.7 °C 29.98in /  1015.1hPa SE 7.0mph /  11.3km/h 12.0mph /  19.3km/h 93% 0.00in /  0mm
04:39 64.2 °F /  17.9 °C 62.1 °F /  16.7 °C 29.98in /  1015.1hPa SE 8.0mph /  12.9km/h 11.0mph /  17.7km/h 93% 0.00in /  0mm
04:44 64.2 °F /  17.9 °C 62.1 °F /  16.7 °C 29.98in /  1015.1hPa SE 7.0mph /  11.3km/h 12.0mph /  19.3km/h 93% 0.00in /  0mm
04:49 64.2 °F /  17.9 °C 62.1 °F /  16.7 °C 29.98in /  1015.1hPa SE 7.0mph /  11.3km/h 11.0mph /  17.7km/h 93% 0.00in /  0mm
04:54 64.2 °F /  17.9 °C 62.1 °F /  16.7 °C 29.98in /  1015.1hPa ESE 10.0mph /  16.1km/h 12.0mph /  19.3km/h 93% 0.00in /  0mm
04:59 64.2 °F /  17.9 °C 62.1 °F /  16.7 °C 29.97in /  1014.8hPa SE 8.0mph /  12.9km/h 10.0mph /  16.1km/h 93% 0.00in /  0mm
05:04 64.2 °F /  17.9 °C 62.1 °F /  16.7 °C 29.97in /  1014.8hPa ESE 8.0mph /  12.9km/h 12.0mph /  19.3km/h 93% 0.00in /  0mm
05:09 64.2 °F /  17.9 °C 62.1 °F /  16.7 °C 29.97in /  1014.8hPa SE 10.0mph /  16.1km/h 10.0mph /  16.1km/h 93% 0.00in /  0mm
05:14 64.2 °F /  17.9 °C 62.1 °F /  16.7 °C 29.97in /  1014.8hPa SE 5.0mph /  8km/h 12.0mph /  19.3km/h 93% 0.00in /  0mm
05:19 64.2 °F /  17.9 °C 62.1 °F /  16.7 °C 29.97in /  1014.8hPa SE 4.0mph /  6.4km/h 13.0mph /  20.9km/h 93% 0.00in /  0mm
05:24 64.2 °F /  17.9 °C 62.1 °F /  16.7 °C 29.97in /  1014.8hPa ESE 13.0mph /  20.9km/h 15.0mph /  24.1km/h 93% 0.00in /  0mm
05:29 64.2 °F /  17.9 °C 62.1 °F /  16.7 °C 29.97in /  1014.8hPa SE 8.0mph /  12.9km/h 10.0mph /  16.1km/h 93% 0.00in /  0mm
05:34 64.2 °F /  17.9 °C 62.1 °F /  16.7 °C 29.97in /  1014.8hPa SE 6.0mph /  9.7km/h 10.0mph /  16.1km/h 93% 0.00in /  0mm
05:39 64.2 °F /  17.9 °C 62.1 °F /  16.7 °C 29.97in /  1014.8hPa ESE 8.0mph /  12.9km/h 10.0mph /  16.1km/h 93% 0.00in /  0mm
05:44 64.2 °F /  17.9 °C 62.1 °F /  16.7 °C 29.97in /  1014.8hPa SE 7.0mph /  11.3km/h 10.0mph /  16.1km/h 93% 0.00in /  0mm
05:49 64.2 °F /  17.9 °C 62.1 °F /  16.7 °C 29.97in /  1014.8hPa ESE 8.0mph /  12.9km/h 11.0mph /  17.7km/h 93% 0.00in /  0mm
05:54 64.2 °F /  17.9 °C 62.1 °F /  16.7 °C 29.97in /  1014.8hPa SSE 8.0mph /  12.9km/h 12.0mph /  19.3km/h 93% 0.00in /  0mm
05:59 64.2 °F /  17.9 °C 62.1 °F /  16.7 °C 29.97in /  1014.8hPa SE 8.0mph /  12.9km/h 9.0mph /  14.5km/h 93% 0.00in /  0mm
06:04 64.2 °F /  17.9 °C 62.1 °F /  16.7 °C 29.97in /  1014.8hPa SE 9.0mph /  14.5km/h 15.0mph /  24.1km/h 93% 0.00in /  0mm
06:09 64.2 °F /  17.9 °C 62.1 °F /  16.7 °C 29.97in /  1014.8hPa SE 9.0mph /  14.5km/h 11.0mph /  17.7km/h 93% 0.07in /  1.78mm
06:14 64.2 °F /  17.9 °C 62.1 °F /  16.7 °C 29.97in /  1014.8hPa SE 8.0mph /  12.9km/h 11.0mph /  17.7km/h 93% 0.07in /  1.78mm
06:19 64.1 °F /  17.8 °C 62.0 °F /  16.7 °C 29.97in /  1014.8hPa SE 6.0mph /  9.7km/h 9.0mph /  14.5km/h 93% 0.10in /  2.54mm
06:24 64.1 °F /  17.8 °C 62.0 °F /  16.7 °C 29.97in /  1014.8hPa ESE 10.0mph /  16.1km/h 11.0mph /  17.7km/h 93% 0.13in /  3.3mm
06:29 64.1 °F /  17.8 °C 62.0 °F /  16.7 °C 29.97in /  1014.8hPa SE 5.0mph /  8km/h 12.0mph /  19.3km/h 93% 0.06in /  1.52mm
06:34 64.1 °F /  17.8 °C 62.0 °F /  16.7 °C 29.97in /  1014.8hPa ESE 8.0mph /  12.9km/h 11.0mph /  17.7km/h 93% 0.18in /  4.57mm
06:39 64.1 °F /  17.8 °C 62.0 °F /  16.7 °C 29.97in /  1014.8hPa SE 8.0mph /  12.9km/h 11.0mph /  17.7km/h 93% 0.35in /  8.89mm
06:44 64.1 °F /  17.8 °C 62.0 °F /  16.7 °C 29.97in /  1014.8hPa SE 6.0mph /  9.7km/h 12.0mph /  19.3km/h 93% 0.44in /  11.18mm
06:50 64.1 °F /  17.8 °C 62.0 °F /  16.7 °C 29.98in /  1015.1hPa SE 6.0mph /  9.7km/h 11.0mph /  17.7km/h 93% 0.17in /  4.32mm
06:55 64.1 °F /  17.8 °C 62.0 °F /  16.7 °C 29.98in /  1015.1hPa SSE 7.0mph /  11.3km/h 14.0mph /  22.5km/h 93% 0.13in /  3.3mm
07:00 64.1 °F /  17.8 °C 62.0 °F /  16.7 °C 29.98in /  1015.1hPa SSE 7.0mph /  11.3km/h 13.0mph /  20.9km/h 93% 0.25in /  6.35mm
07:05 64.1 °F /  17.8 °C 62.0 °F /  16.7 °C 29.98in /  1015.1hPa SSE 6.0mph /  9.7km/h 10.0mph /  16.1km/h 93% 0.19in /  4.83mm
07:10 64.0 °F /  17.8 °C 61.9 °F /  16.6 °C 29.98in /  1015.1hPa SE 9.0mph /  14.5km/h 15.0mph /  24.1km/h 93% 0.13in /  3.3mm
07:15 64.0 °F /  17.8 °C 61.9 °F /  16.6 °C 29.98in /  1015.1hPa ESE 7.0mph /  11.3km/h 13.0mph /  20.9km/h 93% 0.08in /  2.03mm
07:20 64.0 °F /  17.8 °C 61.9 °F /  16.6 °C 29.98in /  1015.1hPa SE 7.0mph /  11.3km/h 9.0mph /  14.5km/h 93% 0.05in /  1.27mm
07:25 64.1 °F /  17.8 °C 62.0 °F /  16.7 °C 29.98in /  1015.1hPa SE 7.0mph /  11.3km/h 12.0mph /  19.3km/h 93% 0.00in /  0mm
07:30 64.1 °F /  17.8 °C 62.0 °F /  16.7 °C 29.98in /  1015.1hPa SSE 10.0mph /  16.1km/h 13.0mph /  20.9km/h 93% 0.00in /  0mm
07:35 64.0 °F /  17.8 °C 61.9 °F /  16.6 °C 29.98in /  1015.1hPa SSE 6.0mph /  9.7km/h 11.0mph /  17.7km/h 93% 0.00in /  0mm
07:40 64.0 °F /  17.8 °C 61.9 °F /  16.6 °C 29.98in /  1015.1hPa SE 4.0mph /  6.4km/h 11.0mph /  17.7km/h 93% 0.00in /  0mm
07:45 63.9 °F /  17.7 °C 61.8 °F /  16.6 °C 29.98in /  1015.1hPa ESE 9.0mph /  14.5km/h 12.0mph /  19.3km/h 93% 0.25in /  6.35mm
07:50 63.9 °F /  17.7 °C 61.8 °F /  16.6 °C 29.99in /  1015.5hPa SE 10.0mph /  16.1km/h 13.0mph /  20.9km/h 93% 0.16in /  4.06mm
07:55 63.9 °F /  17.7 °C 61.8 °F /  16.6 °C 29.99in /  1015.5hPa SE 8.0mph /  12.9km/h 13.0mph /  20.9km/h 93% 0.24in /  6.1mm
07:56 63.9 °F /  17.7 °C 61.8 °F /  16.6 °C 29.99in /  1015.5hPa SSE 8.0mph /  12.9km/h 13.0mph /  20.9km/h 93% 0.24in /  6.1mm
08:01 63.9 °F /  17.7 °C 61.8 °F /  16.6 °C 29.99in /  1015.5hPa SSE 11.0mph /  17.7km/h 14.0mph /  22.5km/h 93% 0.24in /  6.1mm
08:06 63.9 °F /  17.7 °C 61.8 °F /  16.6 °C 29.99in /  1015.5hPa SE 7.0mph /  11.3km/h 12.0mph /  19.3km/h 93% 0.13in /  3.3mm
08:11 63.9 °F /  17.7 °C 61.8 °F /  16.6 °C 29.99in /  1015.5hPa SE 8.0mph /  12.9km/h 12.0mph /  19.3km/h 93% 0.18in /  4.57mm
08:16 63.9 °F /  17.7 °C 61.8 °F /  16.6 °C 29.98in /  1015.1hPa SE 6.0mph /  9.7km/h 10.0mph /  16.1km/h 93% 0.10in /  2.54mm
08:21 64.0 °F /  17.8 °C 61.9 °F /  16.6 °C 29.98in /  1015.1hPa SE 8.0mph /  12.9km/h 10.0mph /  16.1km/h 93% 0.07in /  1.78mm
08:26 64.0 °F /  17.8 °C 61.9 °F /  16.6 °C 29.98in /  1015.1hPa SE 4.0mph /  6.4km/h 11.0mph /  17.7km/h 93% 0.07in /  1.78mm
08:31 64.0 °F /  17.8 °C 61.9 °F /  16.6 °C 29.98in /  1015.1hPa SSE 5.0mph /  8km/h 11.0mph /  17.7km/h 93% 0.05in /  1.27mm
08:36 64.0 °F /  17.8 °C 61.9 °F /  16.6 °C 29.98in /  1015.1hPa SE 4.0mph /  6.4km/h 9.0mph /  14.5km/h 93% 0.00in /  0mm
08:41 64.1 °F /  17.8 °C 62.0 °F /  16.7 °C 29.99in /  1015.5hPa SE 8.0mph /  12.9km/h 12.0mph /  19.3km/h 93% 0.00in /  0mm
08:46 64.1 °F /  17.8 °C 62.0 °F /  16.7 °C 29.98in /  1015.1hPa SSE 7.0mph /  11.3km/h 8.0mph /  12.9km/h 93% 0.00in /  0mm
08:51 64.2 °F /  17.9 °C 62.1 °F /  16.7 °C 29.99in /  1015.5hPa SE 5.0mph /  8km/h 9.0mph /  14.5km/h 93% 0.00in /  0mm
08:56 64.2 °F /  17.9 °C 62.1 °F /  16.7 °C 29.99in /  1015.5hPa ESE 5.0mph /  8km/h 10.0mph /  16.1km/h 93% 0.00in /  0mm
09:01 64.2 °F /  17.9 °C 62.1 °F /  16.7 °C 29.99in /  1015.5hPa SE 6.0mph /  9.7km/h 11.0mph /  17.7km/h 93% 0.00in /  0mm
09:06 64.2 °F /  17.9 °C 62.1 °F /  16.7 °C 29.99in /  1015.5hPa SE 7.0mph /  11.3km/h 10.0mph /  16.1km/h 93% 0.00in /  0mm
09:11 64.3 °F /  17.9 °C 62.2 °F /  16.8 °C 29.99in /  1015.5hPa SE 9.0mph /  14.5km/h 10.0mph /  16.1km/h 93% 0.00in /  0mm
09:16 64.3 °F /  17.9 °C 62.2 °F /  16.8 °C 29.99in /  1015.5hPa SSE 7.0mph /  11.3km/h 8.0mph /  12.9km/h 93% 0.00in /  0mm
09:21 64.3 °F /  17.9 °C 62.2 °F /  16.8 °C 29.99in /  1015.5hPa SE 12.0mph /  19.3km/h 12.0mph /  19.3km/h 93% 0.00in /  0mm
09:26 64.3 °F /  17.9 °C 62.2 °F /  16.8 °C 29.99in /  1015.5hPa SE 8.0mph /  12.9km/h 10.0mph /  16.1km/h 93% 0.00in /  0mm
09:31 64.4 °F /  18 °C 62.3 °F /  16.8 °C 29.99in /  1015.5hPa SSE 8.0mph /  12.9km/h 11.0mph /  17.7km/h 93% 0.00in /  0mm
09:36 64.5 °F /  18.1 °C 62.4 °F /  16.9 °C 29.99in /  1015.5hPa SE 9.0mph /  14.5km/h 12.0mph /  19.3km/h 93% 0.00in /  0mm
09:41 64.5 °F /  18.1 °C 62.4 °F /  16.9 °C 29.99in /  1015.5hPa ESE 9.0mph /  14.5km/h 10.0mph /  16.1km/h 93% 0.00in /  0mm
09:46 64.5 °F /  18.1 °C 62.4 °F /  16.9 °C 29.99in /  1015.5hPa SE 5.0mph /  8km/h 9.0mph /  14.5km/h 93% 0.00in /  0mm
09:51 64.5 °F /  18.1 °C 62.4 °F /  16.9 °C 29.99in /  1015.5hPa SSE 8.0mph /  12.9km/h 9.0mph /  14.5km/h 93% 0.00in /  0mm
09:56 64.5 °F /  18.1 °C 62.4 °F /  16.9 °C 29.99in /  1015.5hPa SE 8.0mph /  12.9km/h 10.0mph /  16.1km/h 93% 0.00in /  0mm
10:01 64.5 °F /  18.1 °C 62.4 °F /  16.9 °C 29.99in /  1015.5hPa SE 5.0mph /  8km/h 8.0mph /  12.9km/h 93% 0.00in /  0mm
10:07 64.5 °F /  18.1 °C 62.4 °F /  16.9 °C 29.99in /  1015.5hPa SSE 8.0mph /  12.9km/h 11.0mph /  17.7km/h 93% 0.00in /  0mm
10:12 64.5 °F /  18.1 °C 62.4 °F /  16.9 °C 29.99in /  1015.5hPa SSW 5.0mph /  8km/h 9.0mph /  14.5km/h 93% 0.00in /  0mm
10:17 64.6 °F /  18.1 °C 62.5 °F /  16.9 °C 29.99in /  1015.5hPa SSW 7.0mph /  11.3km/h 8.0mph /  12.9km/h 93% 0.00in /  0mm
10:22 64.7 °F /  18.2 °C 62.6 °F /  17 °C 29.99in /  1015.5hPa SE 5.0mph /  8km/h 5.0mph /  8km/h 93% 0.00in /  0mm
10:27 64.7 °F /  18.2 °C 62.6 °F /  17 °C 29.99in /  1015.5hPa SE 5.0mph /  8km/h 10.0mph /  16.1km/h 93% 0.00in /  0mm
10:32 64.7 °F /  18.2 °C 62.6 °F /  17 °C 29.99in /  1015.5hPa SSE 7.0mph /  11.3km/h 8.0mph /  12.9km/h 93% 0.00in /  0mm
10:37 64.7 °F /  18.2 °C 62.6 °F /  17 °C 29.99in /  1015.5hPa SE 7.0mph /  11.3km/h 10.0mph /  16.1km/h 93% 0.00in /  0mm
10:42 64.8 °F /  18.2 °C 62.7 °F /  17.1 °C 29.99in /  1015.5hPa SE 7.0mph /  11.3km/h 12.0mph /  19.3km/h 93% 0.00in /  0mm
10:47 64.9 °F /  18.3 °C 62.8 °F /  17.1 °C 29.99in /  1015.5hPa SE 4.0mph /  6.4km/h 8.0mph /  12.9km/h 93% 0.00in /  0mm
10:52 65.0 °F /  18.3 °C 62.9 °F /  17.2 °C 29.99in /  1015.5hPa SE 7.0mph /  11.3km/h 8.0mph /  12.9km/h 93% 0.00in /  0mm
10:57 65.2 °F /  18.4 °C 63.1 °F /  17.3 °C 29.99in /  1015.5hPa SE 8.0mph /  12.9km/h 8.0mph /  12.9km/h 93% 0.00in /  0mm
11:02 65.2 °F /  18.4 °C 63.1 °F /  17.3 °C 29.99in /  1015.5hPa SE 6.0mph /  9.7km/h 10.0mph /  16.1km/h 93% 0.00in /  0mm
11:07 65.2 °F /  18.4 °C 63.1 °F /  17.3 °C 29.99in /  1015.5hPa SSE 8.0mph /  12.9km/h 12.0mph /  19.3km/h 93% 0.08in /  2.03mm
11:12 65.4 °F /  18.6 °C 63.3 °F /  17.4 °C 29.98in /  1015.1hPa SSE 6.0mph /  9.7km/h 9.0mph /  14.5km/h 93% 0.08in /  2.03mm
11:17 65.6 °F /  18.7 °C 63.5 °F /  17.5 °C 29.98in /  1015.1hPa SE 4.0mph /  6.4km/h 9.0mph /  14.5km/h 93% 0.05in /  1.27mm
11:22 65.8 °F /  18.8 °C 63.7 °F /  17.6 °C 29.98in /  1015.1hPa SSE 5.0mph /  8km/h 9.0mph /  14.5km/h 93% 0.04in /  1.02mm
11:27 65.9 °F /  18.8 °C 63.8 °F /  17.7 °C 29.98in /  1015.1hPa ESE 4.0mph /  6.4km/h 12.0mph /  19.3km/h 93% 0.00in /  0mm
11:32 65.9 °F /  18.8 °C 63.8 °F /  17.7 °C 29.98in /  1015.1hPa SE 7.0mph /  11.3km/h 10.0mph /  16.1km/h 93% 0.00in /  0mm
11:37 65.9 °F /  18.8 °C 63.8 °F /  17.7 °C 29.98in /  1015.1hPa SE 4.0mph /  6.4km/h 8.0mph /  12.9km/h 93% 0.00in /  0mm
11:42 65.9 °F /  18.8 °C 63.8 °F /  17.7 °C 29.98in /  1015.1hPa SE 3.0mph /  4.8km/h 6.0mph /  9.7km/h 93% 0.00in /  0mm
11:47 66.0 °F /  18.9 °C 63.9 °F /  17.7 °C 29.98in /  1015.1hPa SE 4.0mph /  6.4km/h 6.0mph /  9.7km/h 93% 0.00in /  0mm
11:52 66.0 °F /  18.9 °C 63.9 °F /  17.7 °C 29.98in /  1015.1hPa ESE 5.0mph /  8km/h 8.0mph /  12.9km/h 93% 0.00in /  0mm
11:57 66.1 °F /  18.9 °C 64.0 °F /  17.8 °C 29.98in /  1015.1hPa SSE 4.0mph /  6.4km/h 5.0mph /  8km/h 93% 0.00in /  0mm
12:02 66.1 °F /  18.9 °C 64.0 °F /  17.8 °C 29.98in /  1015.1hPa SE 6.0mph /  9.7km/h 7.0mph /  11.3km/h 93% 0.00in /  0mm
12:07 66.1 °F /  18.9 °C 64.0 °F /  17.8 °C 29.98in /  1015.1hPa SE 5.0mph /  8km/h 7.0mph /  11.3km/h 93% 0.00in /  0mm
12:13 66.2 °F /  19 °C 64.1 °F /  17.8 °C 29.98in /  1015.1hPa SE 5.0mph /  8km/h 10.0mph /  16.1km/h 93% 0.00in /  0mm
12:18 66.2 °F /  19 °C 64.1 °F /  17.8 °C 29.97in /  1014.8hPa SE 5.0mph /  8km/h 10.0mph /  16.1km/h 93% 0.00in /  0mm
12:23 66.4 °F /  19.1 °C 64.3 °F /  17.9 °C 29.97in /  1014.8hPa SSE 4.0mph /  6.4km/h 9.0mph /  14.5km/h 93% 0.00in /  0mm
12:28 66.7 °F /  19.3 °C 64.6 °F /  18.1 °C 29.97in /  1014.8hPa South 7.0mph /  11.3km/h 8.0mph /  12.9km/h 93% 0.00in /  0mm
12:33 66.8 °F /  19.3 °C 64.7 °F /  18.2 °C 29.97in /  1014.8hPa SE 5.0mph /  8km/h 8.0mph /  12.9km/h 93% 0.00in /  0mm
12:38 66.8 °F /  19.3 °C 64.7 °F /  18.2 °C 29.97in /  1014.8hPa SSE 5.0mph /  8km/h 7.0mph /  11.3km/h 93% 0.00in /  0mm
12:43 66.9 °F /  19.4 °C 64.8 °F /  18.2 °C 29.97in /  1014.8hPa South 4.0mph /  6.4km/h 7.0mph /  11.3km/h 93% 0.00in /  0mm
12:48 66.9 °F /  19.4 °C 64.8 °F /  18.2 °C 29.97in /  1014.8hPa SE 7.0mph /  11.3km/h 7.0mph /  11.3km/h 93% 0.00in /  0mm
12:53 66.7 °F /  19.3 °C 64.6 °F /  18.1 °C 29.97in /  1014.8hPa SE 4.0mph /  6.4km/h 7.0mph /  11.3km/h 93% 0.00in /  0mm
12:58 66.7 °F /  19.3 °C 64.6 °F /  18.1 °C 29.97in /  1014.8hPa SE 7.0mph /  11.3km/h 7.0mph /  11.3km/h 93% 0.00in /  0mm
13:03 66.6 °F /  19.2 °C 64.5 °F /  18.1 °C 29.97in /  1014.8hPa South 2.0mph /  3.2km/h 5.0mph /  8km/h 93% 0.00in /  0mm
13:08 66.5 °F /  19.2 °C 64.4 °F /  18 °C 29.96in /  1014.4hPa SSE 3.0mph /  4.8km/h 6.0mph /  9.7km/h 93% 0.00in /  0mm
13:14 66.4 °F /  19.1 °C 64.3 °F /  17.9 °C 29.96in /  1014.4hPa South 4.0mph /  6.4km/h 7.0mph /  11.3km/h 93% 0.18in /  4.57mm
13:18 66.3 °F /  19.1 °C 64.2 °F /  17.9 °C 29.96in /  1014.4hPa SE 6.0mph /  9.7km/h 6.0mph /  9.7km/h 93% 0.36in /  9.14mm
13:24 66.2 °F /  19 °C 64.1 °F /  17.8 °C 29.96in /  1014.4hPa SSE 6.0mph /  9.7km/h 8.0mph /  12.9km/h 93% 0.31in /  7.87mm
13:28 66.0 °F /  18.9 °C 63.9 °F /  17.7 °C 29.95in /  1014.1hPa SE 10.0mph /  16.1km/h 11.0mph /  17.7km/h 93% 1.03in /  26.16mm
13:33 66.1 °F /  18.9 °C 64.0 °F /  17.8 °C 29.95in /  1014.1hPa SE 7.0mph /  11.3km/h 11.0mph /  17.7km/h 93% 0.61in /  15.49mm
13:39 66.0 °F /  18.9 °C 63.9 °F /  17.7 °C 29.95in /  1014.1hPa SE 5.0mph /  8km/h 7.0mph /  11.3km/h 93% 0.53in /  13.46mm
13:44 66.1 °F /  18.9 °C 64.0 °F /  17.8 °C 29.95in /  1014.1hPa SE 5.0mph /  8km/h 8.0mph /  12.9km/h 93% 0.16in /  4.06mm
13:49 66.2 °F /  19 °C 64.1 °F /  17.8 °C 29.95in /  1014.1hPa SE 3.0mph /  4.8km/h 7.0mph /  11.3km/h 93% 0.07in /  1.78mm
13:54 66.6 °F /  19.2 °C 64.5 °F /  18.1 °C 29.95in /  1014.1hPa SE 7.0mph /  11.3km/h 7.0mph /  11.3km/h 93% 0.04in /  1.02mm
13:59 66.9 °F /  19.4 °C 64.8 °F /  18.2 °C 29.95in /  1014.1hPa ESE 7.0mph /  11.3km/h 8.0mph /  12.9km/h 93% 0.00in /  0mm
14:04 67.5 °F /  19.7 °C 65.4 °F /  18.6 °C 29.95in /  1014.1hPa ESE 4.0mph /  6.4km/h 7.0mph /  11.3km/h 93% 0.00in /  0mm
14:09 67.6 °F /  19.8 °C 65.2 °F /  18.4 °C 29.95in /  1014.1hPa SSE 7.0mph /  11.3km/h 9.0mph /  14.5km/h 92% 0.00in /  0mm
14:14 67.8 °F /  19.9 °C 65.7 °F /  18.7 °C 29.95in /  1014.1hPa SE 7.0mph /  11.3km/h 8.0mph /  12.9km/h 93% 0.00in /  0mm
14:19 67.8 °F /  19.9 °C 65.4 °F /  18.6 °C 29.95in /  1014.1hPa SE 6.0mph /  9.7km/h 8.0mph /  12.9km/h 92% 0.00in /  0mm
14:25 68.1 °F /  20.1 °C 65.7 °F /  18.7 °C 29.94in /  1013.8hPa ENE 5.0mph /  8km/h 7.0mph /  11.3km/h 92% 0.00in /  0mm
14:30 68.2 °F /  20.1 °C 65.8 °F /  18.8 °C 29.94in /  1013.8hPa SE 2.0mph /  3.2km/h 8.0mph /  12.9km/h 92% 0.00in /  0mm
14:35 68.3 °F /  20.2 °C 65.9 °F /  18.8 °C 29.94in /  1013.8hPa ESE 3.0mph /  4.8km/h 7.0mph /  11.3km/h 92% 0.00in /  0mm
14:40 67.9 °F /  19.9 °C 65.5 °F /  18.6 °C 29.94in /  1013.8hPa ESE 5.0mph /  8km/h 6.0mph /  9.7km/h 92% 0.00in /  0mm
14:45 67.7 °F /  19.8 °C 65.3 °F /  18.5 °C 29.94in /  1013.8hPa ENE 3.0mph /  4.8km/h 5.0mph /  8km/h 92% 0.00in /  0mm
14:50 67.4 °F /  19.7 °C 65.0 °F /  18.3 °C 29.94in /  1013.8hPa SE 4.0mph /  6.4km/h 5.0mph /  8km/h 92% 0.00in /  0mm
14:55 67.6 °F /  19.8 °C 65.2 °F /  18.4 °C 29.94in /  1013.8hPa SSE 5.0mph /  8km/h 7.0mph /  11.3km/h 92% 0.00in /  0mm
15:00 67.7 °F /  19.8 °C 65.3 °F /  18.5 °C 29.94in /  1013.8hPa East 3.0mph /  4.8km/h 8.0mph /  12.9km/h 92% 0.00in /  0mm
15:05 67.6 °F /  19.8 °C 65.2 °F /  18.4 °C 29.93in /  1013.4hPa SE 4.0mph /  6.4km/h 7.0mph /  11.3km/h 92% 0.00in /  0mm
15:10 67.7 °F /  19.8 °C 65.3 °F /  18.5 °C 29.93in /  1013.4hPa East 4.0mph /  6.4km/h 6.0mph /  9.7km/h 92% 0.00in /  0mm
15:15 67.9 °F /  19.9 °C 65.5 °F /  18.6 °C 29.93in /  1013.4hPa ESE 4.0mph /  6.4km/h 6.0mph /  9.7km/h 92% 0.00in /  0mm
15:21 67.7 °F /  19.8 °C 65.3 °F /  18.5 °C 29.93in /  1013.4hPa ESE 4.0mph /  6.4km/h 5.0mph /  8km/h 92% 0.00in /  0mm
15:26 67.8 °F /  19.9 °C 65.4 °F /  18.6 °C 29.93in /  1013.4hPa East 3.0mph /  4.8km/h 4.0mph /  6.4km/h 92% 0.00in /  0mm
15:31 67.7 °F /  19.8 °C 65.3 °F /  18.5 °C 29.93in /  1013.4hPa East 2.0mph /  3.2km/h 4.0mph /  6.4km/h 92% 0.00in /  0mm
15:36 67.8 °F /  19.9 °C 65.4 °F /  18.6 °C 29.92in /  1013.1hPa East 2.0mph /  3.2km/h 3.0mph /  4.8km/h 92% 0.00in /  0mm
15:41 67.9 °F /  19.9 °C 65.5 °F /  18.6 °C 29.92in /  1013.1hPa ESE 2.0mph /  3.2km/h 3.0mph /  4.8km/h 92% 0.00in /  0mm
15:46 68.1 °F /  20.1 °C 65.7 °F /  18.7 °C 29.92in /  1013.1hPa ENE 3.0mph /  4.8km/h 4.0mph /  6.4km/h 92% 0.00in /  0mm
15:51 68.2 °F /  20.1 °C 65.8 °F /  18.8 °C 29.92in /  1013.1hPa East 3.0mph /  4.8km/h 4.0mph /  6.4km/h 92% 0.00in /  0mm
15:56 68.6 °F /  20.3 °C 66.2 °F /  19 °C 29.92in /  1013.1hPa Calm   3.0mph /  4.8km/h 92% 0.00in /  0mm
16:01 68.9 °F /  20.5 °C 66.2 °F /  19 °C 29.92in /  1013.1hPa Calm   3.0mph /  4.8km/h 91% 0.00in /  0mm
16:06 69.5 °F /  20.8 °C 66.8 °F /  19.3 °C 29.92in /  1013.1hPa Calm   3.0mph /  4.8km/h 91% 0.00in /  0mm
16:11 69.8 °F /  21 °C 66.7 °F /  19.3 °C 29.92in /  1013.1hPa NNW 2.0mph /  3.2km/h 3.0mph /  4.8km/h 90% 0.00in /  0mm
16:16 69.7 °F /  20.9 °C 66.3 °F /  19.1 °C 29.92in /  1013.1hPa NW 5.0mph /  8km/h 5.0mph /  8km/h 89% 0.00in /  0mm
16:21 68.7 °F /  20.4 °C 65.7 °F /  18.7 °C 29.92in /  1013.1hPa NW 6.0mph /  9.7km/h 10.0mph /  16.1km/h 90% 0.00in /  0mm
16:26 67.9 °F /  19.9 °C 64.9 °F /  18.3 °C 29.92in /  1013.1hPa NNW 6.0mph /  9.7km/h 9.0mph /  14.5km/h 90% 0.00in /  0mm
16:31 67.2 °F /  19.6 °C 64.5 °F /  18.1 °C 29.91in /  1012.8hPa NW 6.0mph /  9.7km/h 10.0mph /  16.1km/h 91% 0.00in /  0mm
16:36 66.7 °F /  19.3 °C 64.3 °F /  17.9 °C 29.92in /  1013.1hPa NNW 4.0mph /  6.4km/h 7.0mph /  11.3km/h 92% 0.00in /  0mm
16:42 66.4 °F /  19.1 °C 64.3 °F /  17.9 °C 29.92in /  1013.1hPa NW 4.0mph /  6.4km/h 6.0mph /  9.7km/h 93% 0.16in /  4.06mm
16:47 66.2 °F /  19 °C 64.1 °F /  17.8 °C 29.91in /  1012.8hPa North 3.0mph /  4.8km/h 6.0mph /  9.7km/h 93% 0.33in /  8.38mm
16:52 66.4 °F /  19.1 °C 64.3 °F /  17.9 °C 29.91in /  1012.8hPa NNW 3.0mph /  4.8km/h 6.0mph /  9.7km/h 93% 0.13in /  3.3mm
16:57 66.6 °F /  19.2 °C 64.5 °F /  18.1 °C 29.91in /  1012.8hPa NNE 5.0mph /  8km/h 6.0mph /  9.7km/h 93% 0.11in /  2.79mm
17:02 66.9 °F /  19.4 °C 64.8 °F /  18.2 °C 29.91in /  1012.8hPa NNW 3.0mph /  4.8km/h 4.0mph /  6.4km/h 93% 0.06in /  1.52mm
17:07 66.9 °F /  19.4 °C 64.8 °F /  18.2 °C 29.91in /  1012.8hPa North 2.0mph /  3.2km/h 4.0mph /  6.4km/h 93% 0.04in /  1.02mm
17:12 66.9 °F /  19.4 °C 64.8 °F /  18.2 °C 29.91in /  1012.8hPa NNW 3.0mph /  4.8km/h 6.0mph /  9.7km/h 93% 0.00in /  0mm
17:17 67.1 °F /  19.5 °C 65.0 °F /  18.3 °C 29.91in /  1012.8hPa NW 4.0mph /  6.4km/h 7.0mph /  11.3km/h 93% 0.00in /  0mm
17:22 67.3 °F /  19.6 °C 65.2 °F /  18.4 °C 29.91in /  1012.8hPa NW 4.0mph /  6.4km/h 7.0mph /  11.3km/h 93% 0.00in /  0mm
17:27 67.4 °F /  19.7 °C 65.3 °F /  18.5 °C 29.91in /  1012.8hPa NNW 3.0mph /  4.8km/h 9.0mph /  14.5km/h 93% 0.00in /  0mm
17:32 67.5 °F /  19.7 °C 65.4 °F /  18.6 °C 29.92in /  1013.1hPa NNW 3.0mph /  4.8km/h 6.0mph /  9.7km/h 93% 0.00in /  0mm
17:37 67.7 °F /  19.8 °C 65.6 °F /  18.7 °C 29.92in /  1013.1hPa NNW 3.0mph /  4.8km/h 5.0mph /  8km/h 93% 0.00in /  0mm
17:43 67.5 °F /  19.7 °C 65.4 °F /  18.6 °C 29.91in /  1012.8hPa WNW 5.0mph /  8km/h 7.0mph /  11.3km/h 93% 0.00in /  0mm
17:48 67.4 °F /  19.7 °C 65.3 °F /  18.5 °C 29.91in /  1012.8hPa NW 3.0mph /  4.8km/h 8.0mph /  12.9km/h 93% 0.00in /  0mm
17:53 67.4 °F /  19.7 °C 65.3 °F /  18.5 °C 29.91in /  1012.8hPa NNW 3.0mph /  4.8km/h 5.0mph /  8km/h 93% 0.00in /  0mm
17:58 67.5 °F /  19.7 °C 65.4 °F /  18.6 °C 29.91in /  1012.8hPa NW 6.0mph /  9.7km/h 6.0mph /  9.7km/h 93% 0.00in /  0mm
18:03 67.9 °F /  19.9 °C 65.8 °F /  18.8 °C 29.91in /  1012.8hPa NNW 6.0mph /  9.7km/h 8.0mph /  12.9km/h 93% 0.00in /  0mm
18:08 68.3 °F /  20.2 °C 65.9 °F /  18.8 °C 29.91in /  1012.8hPa WNW 4.0mph /  6.4km/h 7.0mph /  11.3km/h 92% 0.00in /  0mm
18:13 68.7 °F /  20.4 °C 66.3 °F /  19.1 °C 29.91in /  1012.8hPa NW 5.0mph /  8km/h 8.0mph /  12.9km/h 92% 0.00in /  0mm
18:18 68.4 °F /  20.2 °C 66.0 °F /  18.9 °C 29.91in /  1012.8hPa North 6.0mph /  9.7km/h 6.0mph /  9.7km/h 92% 0.00in /  0mm
18:23 68.3 °F /  20.2 °C 65.9 °F /  18.8 °C 29.91in /  1012.8hPa NW 8.0mph /  12.9km/h 9.0mph /  14.5km/h 92% 0.00in /  0mm
18:28 68.2 °F /  20.1 °C 65.8 °F /  18.8 °C 29.91in /  1012.8hPa North 6.0mph /  9.7km/h 7.0mph /  11.3km/h 92% 0.00in /  0mm
18:33 68.3 °F /  20.2 °C 65.9 °F /  18.8 °C 29.91in /  1012.8hPa NNW 3.0mph /  4.8km/h 6.0mph /  9.7km/h 92% 0.00in /  0mm
18:38 68.5 °F /  20.3 °C 66.1 °F /  18.9 °C 29.91in /  1012.8hPa NW 2.0mph /  3.2km/h 7.0mph /  11.3km/h 92% 0.00in /  0mm
18:43 68.6 °F /  20.3 °C 66.2 °F /  19 °C 29.91in /  1012.8hPa North 5.0mph /  8km/h 6.0mph /  9.7km/h 92% 0.00in /  0mm
18:48 68.5 °F /  20.3 °C 65.8 °F /  18.8 °C 29.91in /  1012.8hPa NW 11.0mph /  17.7km/h 11.0mph /  17.7km/h 91% 0.00in /  0mm
18:53 68.4 °F /  20.2 °C 65.7 °F /  18.7 °C 29.91in /  1012.8hPa NNW 9.0mph /  14.5km/h 9.0mph /  14.5km/h 91% 0.00in /  0mm
18:58 68.1 °F /  20.1 °C 65.4 °F /  18.6 °C 29.91in /  1012.8hPa NW 7.0mph /  11.3km/h 9.0mph /  14.5km/h 91% 0.00in /  0mm
19:03 67.8 °F /  19.9 °C 65.1 °F /  18.4 °C 29.92in /  1013.1hPa NNW 6.0mph /  9.7km/h 7.0mph /  11.3km/h 91% 0.00in /  0mm
19:08 67.7 °F /  19.8 °C 65.3 °F /  18.5 °C 29.92in /  1013.1hPa NNW 6.0mph /  9.7km/h 7.0mph /  11.3km/h 92% 0.00in /  0mm
19:13 67.7 °F /  19.8 °C 65.3 °F /  18.5 °C 29.92in /  1013.1hPa NW 4.0mph /  6.4km/h 7.0mph /  11.3km/h 92% 0.00in /  0mm
19:18 67.4 °F /  19.7 °C 64.7 °F /  18.2 °C 29.92in /  1013.1hPa NNW 6.0mph /  9.7km/h 10.0mph /  16.1km/h 91% 0.00in /  0mm
19:23 67.3 °F /  19.6 °C 64.9 °F /  18.3 °C 29.92in /  1013.1hPa NNW 3.0mph /  4.8km/h 9.0mph /  14.5km/h 92% 0.00in /  0mm
19:28 67.1 °F /  19.5 °C 64.7 °F /  18.2 °C 29.92in /  1013.1hPa North 6.0mph /  9.7km/h 7.0mph /  11.3km/h 92% 0.00in /  0mm
19:33 66.8 °F /  19.3 °C 64.4 °F /  18 °C 29.92in /  1013.1hPa NW 6.0mph /  9.7km/h 9.0mph /  14.5km/h 92% 0.00in /  0mm
19:38 66.6 °F /  19.2 °C 64.2 °F /  17.9 °C 29.92in /  1013.1hPa NW 5.0mph /  8km/h 8.0mph /  12.9km/h 92% 0.00in /  0mm
19:43 66.3 °F /  19.1 °C 63.9 °F /  17.7 °C 29.92in /  1013.1hPa WNW 3.0mph /  4.8km/h 4.0mph /  6.4km/h 92% 0.00in /  0mm
19:48 66.2 °F /  19 °C 63.8 °F /  17.7 °C 29.92in /  1013.1hPa NW 3.0mph /  4.8km/h 5.0mph /  8km/h 92% 0.00in /  0mm
19:53 66.0 °F /  18.9 °C 63.6 °F /  17.6 °C 29.92in /  1013.1hPa NW 4.0mph /  6.4km/h 6.0mph /  9.7km/h 92% 0.00in /  0mm
19:58 65.9 °F /  18.8 °C 63.5 °F /  17.5 °C 29.92in /  1013.1hPa WNW 2.0mph /  3.2km/h 4.0mph /  6.4km/h 92% 0.00in /  0mm
20:03 65.8 °F /  18.8 °C 63.7 °F /  17.6 °C 29.92in /  1013.1hPa WNW 3.0mph /  4.8km/h 4.0mph /  6.4km/h 93% 0.00in /  0mm
20:08 65.7 °F /  18.7 °C 63.6 °F /  17.6 °C 29.93in /  1013.4hPa NW 5.0mph /  8km/h 6.0mph /  9.7km/h 93% 0.00in /  0mm
20:13 65.5 °F /  18.6 °C 63.4 °F /  17.4 °C 29.93in /  1013.4hPa NW 7.0mph /  11.3km/h 7.0mph /  11.3km/h 93% 0.00in /  0mm
20:18 65.4 °F /  18.6 °C 63.3 °F /  17.4 °C 29.93in /  1013.4hPa NW 10.0mph /  16.1km/h 10.0mph /  16.1km/h 93% 0.00in /  0mm
20:23 65.2 °F /  18.4 °C 63.1 °F /  17.3 °C 29.93in /  1013.4hPa NNW 8.0mph /  12.9km/h 9.0mph /  14.5km/h 93% 0.00in /  0mm
20:28 65.1 °F /  18.4 °C 63.0 °F /  17.2 °C 29.94in /  1013.8hPa NNW 7.0mph /  11.3km/h 8.0mph /  12.9km/h 93% 0.00in /  0mm
20:33 65.0 °F /  18.3 °C 62.9 °F /  17.2 °C 29.94in /  1013.8hPa NW 4.0mph /  6.4km/h 8.0mph /  12.9km/h 93% 0.00in /  0mm
20:38 64.9 °F /  18.3 °C 62.8 °F /  17.1 °C 29.94in /  1013.8hPa NW 7.0mph /  11.3km/h 10.0mph /  16.1km/h 93% 0.00in /  0mm
20:43 64.7 °F /  18.2 °C 62.6 °F /  17 °C 29.94in /  1013.8hPa NW 4.0mph /  6.4km/h 7.0mph /  11.3km/h 93% 0.00in /  0mm
20:48 64.6 °F /  18.1 °C 62.5 °F /  16.9 °C 29.94in /  1013.8hPa NW 4.0mph /  6.4km/h 7.0mph /  11.3km/h 93% 0.00in /  0mm
20:53 64.5 °F /  18.1 °C 62.4 °F /  16.9 °C 29.94in /  1013.8hPa NW 3.0mph /  4.8km/h 5.0mph /  8km/h 93% 0.00in /  0mm
20:58 64.4 °F /  18 °C 62.3 °F /  16.8 °C 29.94in /  1013.8hPa WNW 2.0mph /  3.2km/h 4.0mph /  6.4km/h 93% 0.00in /  0mm
21:03 64.2 °F /  17.9 °C 62.1 °F /  16.7 °C 29.95in /  1014.1hPa NW 4.0mph /  6.4km/h 8.0mph /  12.9km/h 93% 0.00in /  0mm
21:08 64.0 °F /  17.8 °C 61.9 °F /  16.6 °C 29.95in /  1014.1hPa NW 3.0mph /  4.8km/h 7.0mph /  11.3km/h 93% 0.00in /  0mm
21:13 63.8 °F /  17.7 °C 61.7 °F /  16.5 °C 29.95in /  1014.1hPa NW 4.0mph /  6.4km/h 6.0mph /  9.7km/h 93% 0.00in /  0mm
21:18 63.5 °F /  17.5 °C 61.4 °F /  16.3 °C 29.95in /  1014.1hPa WNW 2.0mph /  3.2km/h 6.0mph /  9.7km/h 93% 0.00in /  0mm
21:24 63.3 °F /  17.4 °C 61.2 °F /  16.2 °C 29.95in /  1014.1hPa NW 8.0mph /  12.9km/h 8.0mph /  12.9km/h 93% 0.00in /  0mm
21:29 63.0 °F /  17.2 °C 61.0 °F /  16.1 °C 29.95in /  1014.1hPa NNW 7.0mph /  11.3km/h 7.0mph /  11.3km/h 93% 0.00in /  0mm
21:34 62.9 °F /  17.2 °C 60.8 °F /  16 °C 29.95in /  1014.1hPa NW 4.0mph /  6.4km/h 6.0mph /  9.7km/h 93% 0.00in /  0mm
21:39 62.8 °F /  17.1 °C 60.8 °F /  16 °C 29.95in /  1014.1hPa NW 5.0mph /  8km/h 7.0mph /  11.3km/h 93% 0.00in /  0mm
21:44 62.7 °F /  17.1 °C 60.7 °F /  15.9 °C 29.95in /  1014.1hPa WNW 5.0mph /  8km/h 7.0mph /  11.3km/h 93% 0.00in /  0mm
21:49 62.7 °F /  17.1 °C 60.7 °F /  15.9 °C 29.95in /  1014.1hPa WNW 2.0mph /  3.2km/h 4.0mph /  6.4km/h 93% 0.00in /  0mm
21:54 62.6 °F /  17 °C 60.5 °F /  15.8 °C 29.95in /  1014.1hPa NW 2.0mph /  3.2km/h 5.0mph /  8km/h 93% 0.00in /  0mm
21:59 62.5 °F /  16.9 °C 60.5 °F /  15.8 °C 29.95in /  1014.1hPa NNW 2.0mph /  3.2km/h 5.0mph /  8km/h 93% 0.00in /  0mm
22:04 62.4 °F /  16.9 °C 60.3 °F /  15.7 °C 29.95in /  1014.1hPa NW 4.0mph /  6.4km/h 4.0mph /  6.4km/h 93% 0.00in /  0mm
22:09 62.3 °F /  16.8 °C 60.2 °F /  15.7 °C 29.95in /  1014.1hPa NW 6.0mph /  9.7km/h 6.0mph /  9.7km/h 93% 0.00in /  0mm
22:14 62.3 °F /  16.8 °C 60.2 °F /  15.7 °C 29.95in /  1014.1hPa NNW 2.0mph /  3.2km/h 5.0mph /  8km/h 93% 0.00in /  0mm
22:19 62.2 °F /  16.8 °C 60.2 °F /  15.7 °C 29.95in /  1014.1hPa NNW 2.0mph /  3.2km/h 6.0mph /  9.7km/h 93% 0.00in /  0mm
22:24 62.2 °F /  16.8 °C 60.2 °F /  15.7 °C 29.95in /  1014.1hPa WNW 4.0mph /  6.4km/h 5.0mph /  8km/h 93% 0.00in /  0mm
22:29 62.0 °F /  16.7 °C 60.0 °F /  15.6 °C 29.95in /  1014.1hPa WNW 2.0mph /  3.2km/h 4.0mph /  6.4km/h 93% 0.00in /  0mm
22:34 61.8 °F /  16.6 °C 59.8 °F /  15.4 °C 29.96in /  1014.4hPa NW 2.0mph /  3.2km/h 4.0mph /  6.4km/h 93% 0.00in /  0mm
22:39 61.7 °F /  16.5 °C 59.7 °F /  15.4 °C 29.95in /  1014.1hPa West 1.0mph /  1.6km/h 4.0mph /  6.4km/h 93% 0.00in /  0mm
22:44 61.6 °F /  16.4 °C 59.6 °F /  15.3 °C 29.95in /  1014.1hPa WNW 2.0mph /  3.2km/h 4.0mph /  6.4km/h 93% 0.00in /  0mm
22:49 61.5 °F /  16.4 °C 59.8 °F /  15.4 °C 29.95in /  1014.1hPa WNW 2.0mph /  3.2km/h 3.0mph /  4.8km/h 94% 0.00in /  0mm
22:54 61.3 °F /  16.3 °C 59.6 °F /  15.3 °C 29.95in /  1014.1hPa NW 1.0mph /  1.6km/h 3.0mph /  4.8km/h 94% 0.00in /  0mm
23:00 61.2 °F /  16.2 °C 59.5 °F /  15.3 °C 29.95in /  1014.1hPa WNW 1.0mph /  1.6km/h 2.0mph /  3.2km/h 94% 0.00in /  0mm
23:05 61.2 °F /  16.2 °C 59.5 °F /  15.3 °C 29.96in /  1014.4hPa NW 1.0mph /  1.6km/h 1.0mph /  1.6km/h 94% 0.00in /  0mm
23:10 61.2 °F /  16.2 °C 59.5 °F /  15.3 °C 29.96in /  1014.4hPa NW 1.0mph /  1.6km/h 2.0mph /  3.2km/h 94% 0.00in /  0mm
23:15 61.1 °F /  16.2 °C 59.4 °F /  15.2 °C 29.96in /  1014.4hPa NW 1.0mph /  1.6km/h 1.0mph /  1.6km/h 94% 0.00in /  0mm
23:20 61.1 °F /  16.2 °C 59.4 °F /  15.2 °C 29.95in /  1014.1hPa NW 1.0mph /  1.6km/h 1.0mph /  1.6km/h 94% 0.00in /  0mm
23:25 61.1 °F /  16.2 °C 59.4 °F /  15.2 °C 29.96in /  1014.4hPa Calm   2.0mph /  3.2km/h 94% 0.00in /  0mm
23:30 61.1 °F /  16.2 °C 59.4 °F /  15.2 °C 29.95in /  1014.1hPa NNW 1.0mph /  1.6km/h 3.0mph /  4.8km/h 94% 0.00in /  0mm
23:35 61.2 °F /  16.2 °C 59.5 °F /  15.3 °C 29.95in /  1014.1hPa WNW 2.0mph /  3.2km/h 2.0mph /  3.2km/h 94% 0.00in /  0mm
23:36 61.2 °F /  16.2 °C 59.5 °F /  15.3 °C 29.95in /  1014.1hPa NW 2.0mph /  3.2km/h 2.0mph /  3.2km/h 94% 0.00in /  0mm
23:41 61.3 °F /  16.3 °C 59.6 °F /  15.3 °C 29.95in /  1014.1hPa WNW 2.0mph /  3.2km/h 3.0mph /  4.8km/h 94% 0.00in /  0mm
23:46 61.4 °F /  16.3 °C 59.7 °F /  15.4 °C 29.95in /  1014.1hPa NW 1.0mph /  1.6km/h 3.0mph /  4.8km/h 94% 0.00in /  0mm
23:51 61.5 °F /  16.4 °C 59.8 °F /  15.4 °C 29.95in /  1014.1hPa NW 2.0mph /  3.2km/h 3.0mph /  4.8km/h 94% 0.00in /  0mm
23:56 61.6 °F /  16.4 °C 59.9 °F /  15.5 °C 29.95in /  1014.1hPa WNW 1.0mph /  1.6km/h 1.0mph /  1.6km/h 94% 0.00in /  0mm
Compliments of Weather Underground